createdAt,value
2019-06-20T00:00:12.571Z,18.69
2019-06-20T00:02:45.947Z,18.80
2019-06-20T00:05:18.044Z,18.81
2019-06-20T00:07:49.916Z,18.84
2019-06-20T00:10:21.765Z,18.79
2019-06-20T00:13:00.241Z,18.63
2019-06-20T00:15:27.082Z,18.62
2019-06-20T00:17:58.859Z,18.56
2019-06-20T00:20:31.790Z,18.36
2019-06-20T00:23:03.565Z,17.99
2019-06-20T00:25:35.413Z,17.61
2019-06-20T00:28:07.207Z,17.40
2019-06-20T00:30:39.364Z,17.27
2019-06-20T00:33:11.360Z,17.32
2019-06-20T00:35:43.825Z,17.23
2019-06-20T00:38:15.593Z,17.31
2019-06-20T00:40:47.399Z,17.18
2019-06-20T00:43:19.158Z,17.23
2019-06-20T00:45:51.917Z,17.23
2019-06-20T00:48:23.721Z,17.08
2019-06-20T00:50:55.504Z,17.11
2019-06-20T00:53:27.317Z,17.16
2019-06-20T00:55:59.058Z,17.21
2019-06-20T00:58:30.838Z,17.28
2019-06-20T01:01:02.624Z,17.38
2019-06-20T01:03:34.409Z,17.43
2019-06-20T01:06:06.292Z,17.35
2019-06-20T01:08:38.062Z,17.44
2019-06-20T01:11:10.939Z,17.42
2019-06-20T01:13:42.716Z,17.48
2019-06-20T01:16:14.509Z,17.49
2019-06-20T01:18:46.291Z,17.53
2019-06-20T01:21:18.082Z,17.55
2019-06-20T01:23:49.908Z,17.64
2019-06-20T01:26:21.693Z,17.58
2019-06-20T01:28:53.479Z,17.54
2019-06-20T01:31:25.344Z,17.61
2019-06-20T01:33:57.119Z,17.63
2019-06-20T01:36:28.900Z,17.61
2019-06-20T01:39:00.669Z,17.60
2019-06-20T01:41:34.048Z,17.56
2019-06-20T01:44:06.097Z,17.60
2019-06-20T01:46:37.895Z,17.64
2019-06-20T01:49:10.915Z,17.66
2019-06-20T01:51:42.776Z,17.64
2019-06-20T01:54:14.553Z,17.56
2019-06-20T01:56:46.352Z,17.49
2019-06-20T01:59:18.107Z,17.37
2019-06-20T02:01:49.911Z,17.32
2019-06-20T02:04:21.680Z,17.27
2019-06-20T02:06:53.462Z,17.27
2019-06-20T02:09:25.632Z,17.24
2019-06-20T02:11:57.460Z,17.24
2019-06-20T02:14:29.568Z,17.24
2019-06-20T02:17:01.370Z,17.24
2019-06-20T02:19:33.152Z,17.18
2019-06-20T02:22:05.000Z,17.17
2019-06-20T02:24:36.768Z,17.19
2019-06-20T02:27:08.630Z,17.18
2019-06-20T02:29:40.407Z,17.15
2019-06-20T02:32:12.187Z,17.07
2019-06-20T02:34:44.304Z,17.03
2019-06-20T02:37:16.084Z,17.03
2019-06-20T02:39:47.866Z,17.05
2019-06-20T02:42:19.640Z,17.07
2019-06-20T02:44:51.777Z,17.05
2019-06-20T02:47:23.562Z,17.02
2019-06-20T02:49:55.334Z,17.04
2019-06-20T02:52:27.276Z,17.00
2019-06-20T02:54:59.048Z,17.01
2019-06-20T02:57:30.838Z,17.08
2019-06-20T03:00:02.665Z,17.03
2019-06-20T03:02:34.712Z,17.04
2019-06-20T03:05:08.704Z,17.05
2019-06-20T03:07:40.457Z,16.88
2019-06-20T03:10:13.651Z,16.95
2019-06-20T03:12:45.432Z,16.85
2019-06-20T03:15:17.346Z,16.69
2019-06-20T03:17:49.126Z,16.55
2019-06-20T03:20:21.937Z,16.46
2019-06-20T03:22:53.721Z,16.64
2019-06-20T03:25:25.495Z,16.75
2019-06-20T03:27:57.573Z,16.85
2019-06-20T03:30:29.416Z,16.90
2019-06-20T03:33:01.209Z,16.94
2019-06-20T03:35:32.950Z,17.05
2019-06-20T03:38:04.793Z,17.16
2019-06-20T03:40:36.559Z,17.02
2019-06-20T03:43:08.353Z,17.00
2019-06-20T03:45:40.135Z,17.05
2019-06-20T03:48:11.936Z,16.94
2019-06-20T03:50:43.682Z,16.98
2019-06-20T03:53:15.771Z,16.99
2019-06-20T03:55:48.602Z,16.98
2019-06-20T03:58:20.710Z,16.95
2019-06-20T04:00:52.504Z,16.97
2019-06-20T04:03:24.282Z,16.96
2019-06-20T04:05:56.058Z,16.94
2019-06-20T04:08:27.838Z,16.98
2019-06-20T04:10:59.605Z,16.98
2019-06-20T04:13:31.387Z,16.92
2019-06-20T04:16:03.490Z,16.91
2019-06-20T04:18:35.302Z,16.89
2019-06-20T04:21:07.161Z,16.96
2019-06-20T04:23:38.949Z,17.00
2019-06-20T04:26:11.180Z,17.00
2019-06-20T04:28:42.977Z,16.99
2019-06-20T04:31:14.798Z,16.97
2019-06-20T04:33:46.545Z,17.00
2019-06-20T04:36:18.361Z,16.91
2019-06-20T04:38:50.145Z,16.89
2019-06-20T04:41:21.913Z,16.93
2019-06-20T04:43:53.706Z,16.94
2019-06-20T04:46:27.121Z,16.95
2019-06-20T04:48:58.900Z,16.89
2019-06-20T04:51:30.680Z,16.92
2019-06-20T04:54:02.723Z,16.95
2019-06-20T04:56:34.498Z,16.99
2019-06-20T04:59:06.285Z,16.95
2019-06-20T05:01:38.052Z,16.87
2019-06-20T05:04:11.068Z,16.86
2019-06-20T05:06:45.651Z,16.84
2019-06-20T05:09:17.421Z,16.70
2019-06-20T05:11:49.193Z,16.71
2019-06-20T05:14:20.982Z,16.77
2019-06-20T05:16:52.751Z,16.77
2019-06-20T05:19:24.576Z,16.78
2019-06-20T05:21:56.380Z,16.60
2019-06-20T05:24:28.237Z,16.47
2019-06-20T05:27:00.040Z,16.34
2019-06-20T05:29:31.794Z,16.33
2019-06-20T05:32:03.711Z,16.28
2019-06-20T05:34:35.572Z,16.36
2019-06-20T05:37:07.342Z,16.35
2019-06-20T05:39:39.199Z,16.36
2019-06-20T05:42:11.726Z,16.47
2019-06-20T05:44:43.556Z,16.58
2019-06-20T05:47:15.352Z,16.60
2019-06-20T05:49:47.157Z,16.63
2019-06-20T05:52:18.986Z,16.68
2019-06-20T05:54:50.836Z,16.65
2019-06-20T05:57:22.673Z,16.63
2019-06-20T05:59:54.532Z,16.63
2019-06-20T06:02:26.467Z,16.63
2019-06-20T06:04:58.491Z,16.60
2019-06-20T06:07:30.403Z,16.58
2019-06-20T06:10:04.015Z,16.58
2019-06-20T06:12:36.559Z,16.49
2019-06-20T06:15:09.670Z,16.48
2019-06-20T06:17:42.125Z,16.53
2019-06-20T06:20:15.940Z,16.49
2019-06-20T06:22:47.778Z,16.46
2019-06-20T06:25:19.681Z,16.43
2019-06-20T06:27:51.408Z,16.36
2019-06-20T06:30:23.263Z,15.77
2019-06-20T06:32:55.027Z,15.68
2019-06-20T06:35:26.884Z,15.49
2019-06-20T06:37:58.654Z,15.36
2019-06-20T06:40:30.562Z,15.33
2019-06-20T06:43:02.332Z,15.23
2019-06-20T06:45:34.196Z,15.29
2019-06-20T06:48:05.994Z,15.33
2019-06-20T06:50:38.082Z,15.41
2019-06-20T06:53:11.054Z,15.49
2019-06-20T06:55:42.853Z,15.67
2019-06-20T06:58:14.630Z,15.88
2019-06-20T07:00:46.406Z,15.96
2019-06-20T07:03:18.177Z,16.08
2019-06-20T07:05:49.989Z,16.14
2019-06-20T07:08:21.769Z,16.10
2019-06-20T07:10:53.544Z,16.05
2019-06-20T07:13:25.314Z,16.21
2019-06-20T07:15:58.066Z,16.35
2019-06-20T07:18:29.834Z,16.46
2019-06-20T07:21:01.833Z,16.71
2019-06-20T07:23:33.565Z,16.80
2019-06-20T07:26:05.409Z,16.69
2019-06-20T07:28:37.171Z,16.90
2019-06-20T07:31:10.540Z,16.96
2019-06-20T07:33:42.301Z,17.19
2019-06-20T07:36:14.084Z,17.24
2019-06-20T07:38:45.858Z,17.29
2019-06-20T07:41:17.638Z,17.49
2019-06-20T07:43:50.440Z,17.63
2019-06-20T07:46:22.250Z,17.78
2019-06-20T07:48:54.033Z,17.84
2019-06-20T07:51:25.817Z,17.81
2019-06-20T07:53:57.595Z,18.07
2019-06-20T07:56:29.482Z,18.18
2019-06-20T07:59:01.283Z,18.20
2019-06-20T08:01:33.064Z,18.30
2019-06-20T08:04:05.122Z,18.43
2019-06-20T08:06:36.908Z,18.44
2019-06-20T08:09:09.561Z,18.61
2019-06-20T08:11:41.356Z,18.68
2019-06-20T08:14:13.110Z,18.87
2019-06-20T08:16:44.901Z,19.09
2019-06-20T08:19:16.692Z,19.13
2019-06-20T08:21:48.457Z,19.28
2019-06-20T08:24:20.221Z,19.39
2019-06-20T08:26:52.016Z,19.21
2019-06-20T08:29:23.764Z,19.35
2019-06-20T08:31:56.162Z,19.14
2019-06-20T08:34:29.023Z,19.37
2019-06-20T08:37:02.381Z,19.36
2019-06-20T08:39:34.592Z,19.42
2019-06-20T08:42:06.615Z,19.69
2019-06-20T08:44:38.953Z,19.80
2019-06-20T08:47:11.110Z,19.87
2019-06-20T08:49:43.577Z,19.95
2019-06-20T08:52:15.353Z,19.63
2019-06-20T08:54:47.138Z,19.71
2019-06-20T08:57:18.914Z,19.83
2019-06-20T08:59:50.678Z,19.78
2019-06-20T09:02:22.463Z,19.80
2019-06-20T09:04:55.192Z,19.88
2019-06-20T09:07:27.808Z,19.82
2019-06-20T09:09:59.813Z,19.93
2019-06-20T09:12:31.706Z,19.92
2019-06-20T09:15:04.845Z,19.96
2019-06-20T09:17:36.628Z,19.86
2019-06-20T09:20:12.266Z,20.10
2019-06-20T09:22:44.115Z,20.09
2019-06-20T09:25:16.224Z,20.13
2019-06-20T09:27:48.004Z,20.16
2019-06-20T09:30:21.389Z,20.31
2019-06-20T09:32:53.855Z,20.40
2019-06-20T09:35:27.016Z,20.24
2019-06-20T09:37:59.287Z,20.45
2019-06-20T09:40:31.221Z,20.45
2019-06-20T09:43:03.129Z,20.20
2019-06-20T09:45:35.032Z,20.17
2019-06-20T09:48:06.972Z,20.17
2019-06-20T09:50:38.805Z,20.22
2019-06-20T09:53:11.393Z,20.47
2019-06-20T09:55:43.159Z,20.66
2019-06-20T09:58:14.920Z,20.74
2019-06-20T10:00:48.163Z,20.54
2019-06-20T10:03:20.744Z,20.45
2019-06-20T10:05:52.575Z,20.41
2019-06-20T10:08:24.443Z,20.30
2019-06-20T10:10:56.374Z,20.25
2019-06-20T10:13:28.094Z,20.23
2019-06-20T10:15:59.893Z,20.35
2019-06-20T10:18:31.644Z,20.24
2019-06-20T10:21:03.498Z,20.35
2019-06-20T10:23:35.269Z,20.60
2019-06-20T10:26:07.099Z,20.74
2019-06-20T10:28:39.113Z,20.90
2019-06-20T10:31:11.197Z,20.90
2019-06-20T10:33:45.185Z,20.87
2019-06-20T10:36:16.443Z,20.94
2019-06-20T10:38:48.213Z,20.80
2019-06-20T10:41:19.979Z,21.06
2019-06-20T10:43:51.834Z,21.33
2019-06-20T10:46:23.592Z,21.76
2019-06-20T10:48:56.439Z,21.82
2019-06-20T10:51:33.063Z,22.01
2019-06-20T10:54:05.089Z,21.88
2019-06-20T10:56:36.848Z,21.97
2019-06-20T10:59:08.626Z,22.04
2019-06-20T11:01:41.492Z,21.87
2019-06-20T11:04:13.963Z,22.12
2019-06-20T11:06:45.768Z,22.19
2019-06-20T11:09:17.860Z,22.32
2019-06-20T11:11:49.615Z,22.60
2019-06-20T11:14:21.460Z,22.57
2019-06-20T11:16:53.227Z,22.71
2019-06-20T11:19:24.993Z,22.84
2019-06-20T11:21:56.761Z,22.74
2019-06-20T11:24:28.539Z,22.73
2019-06-20T11:27:00.305Z,23.12
2019-06-20T11:29:32.339Z,23.22
2019-06-20T11:32:04.093Z,23.02
2019-06-20T11:34:37.655Z,23.02
2019-06-20T11:37:11.277Z,22.91
2019-06-20T11:39:43.268Z,22.41
2019-06-20T11:42:15.004Z,22.25
2019-06-20T11:44:47.495Z,22.13
2019-06-20T11:47:20.625Z,22.00
2019-06-20T11:49:52.413Z,21.90
2019-06-20T11:52:24.169Z,22.03
2019-06-20T11:54:55.947Z,22.04
2019-06-20T11:57:27.701Z,21.88
2019-06-20T11:59:59.468Z,21.85
2019-06-20T12:02:31.229Z,21.86
2019-06-20T12:05:03.197Z,21.76
2019-06-20T12:07:34.966Z,21.68
2019-06-20T12:10:07.894Z,21.69
2019-06-20T12:12:40.909Z,21.77
2019-06-20T12:15:13.847Z,21.75
2019-06-20T12:17:47.043Z,21.66
2019-06-20T12:20:21.113Z,21.79
2019-06-20T12:22:53.655Z,21.78
2019-06-20T12:25:25.958Z,21.78
2019-06-20T12:27:57.722Z,21.72
2019-06-20T12:30:30.339Z,21.48
2019-06-20T12:33:02.176Z,21.41
2019-06-20T12:35:34.924Z,21.29
2019-06-20T12:38:06.685Z,21.13
2019-06-20T12:40:39.666Z,21.12
2019-06-20T12:43:11.941Z,20.94
2019-06-20T12:45:43.760Z,20.87
2019-06-20T12:48:15.592Z,20.75
2019-06-20T12:50:47.622Z,20.81
2019-06-20T12:53:19.454Z,20.86
2019-06-20T12:55:51.214Z,20.83
2019-06-20T12:58:23.055Z,20.85
2019-06-20T13:00:54.826Z,20.81
2019-06-20T13:03:26.599Z,20.65
2019-06-20T13:05:58.448Z,20.56
2019-06-20T13:08:30.221Z,20.55
2019-06-20T13:11:02.041Z,20.51
2019-06-20T13:13:33.811Z,20.49
2019-06-20T13:16:05.585Z,20.55
2019-06-20T13:18:37.362Z,20.54
2019-06-20T13:21:09.861Z,20.55
2019-06-20T13:23:43.145Z,20.60
2019-06-20T13:26:15.272Z,20.61
2019-06-20T13:29:02.871Z,20.63
2019-06-20T13:31:20.715Z,20.65
2019-06-20T13:33:52.741Z,20.61
2019-06-20T13:36:24.523Z,20.60
2019-06-20T13:38:56.306Z,20.27
2019-06-20T13:41:28.439Z,19.85
2019-06-20T13:44:00.220Z,19.48
2019-06-20T13:46:31.995Z,19.27
2019-06-20T13:49:04.037Z,19.02
2019-06-20T13:51:35.835Z,18.84
2019-06-20T13:54:08.093Z,18.71
2019-06-20T13:56:39.858Z,18.61
2019-06-20T13:59:11.632Z,18.66
2019-06-20T14:01:45.469Z,18.82
2019-06-20T14:04:16.892Z,18.65
2019-06-20T14:06:49.733Z,18.60
2019-06-20T14:09:21.522Z,18.58
2019-06-20T14:11:54.210Z,18.70
2019-06-20T14:14:26.022Z,18.73
2019-06-20T14:16:58.281Z,18.90
2019-06-20T14:19:30.040Z,19.07
2019-06-20T14:22:02.561Z,19.10
2019-06-20T14:24:34.314Z,19.16
2019-06-20T14:27:06.094Z,19.11
2019-06-20T14:29:56.750Z,19.20
2019-06-20T14:32:29.311Z,19.31
2019-06-20T14:35:01.079Z,19.40
2019-06-20T14:37:32.871Z,19.45
2019-06-20T14:40:08.911Z,19.52
2019-06-20T14:42:40.699Z,19.57
2019-06-20T14:45:12.696Z,19.66
2019-06-20T14:47:44.668Z,19.69
2019-06-20T14:50:19.269Z,19.75
2019-06-20T14:52:52.235Z,19.78
2019-06-20T14:55:24.798Z,19.83
2019-06-20T14:57:56.047Z,19.80
2019-06-20T15:00:30.066Z,19.78
2019-06-20T15:03:01.842Z,19.80
2019-06-20T15:05:34.875Z,19.78
2019-06-20T15:08:06.760Z,19.65
2019-06-20T15:10:38.525Z,19.62
2019-06-20T15:13:11.385Z,19.57
2019-06-20T15:15:43.159Z,19.58
2019-06-20T15:18:14.934Z,19.59
2019-06-20T15:20:49.762Z,19.37
2019-06-20T15:23:20.472Z,19.45
2019-06-20T15:25:52.275Z,19.47
2019-06-20T15:28:24.012Z,19.49
2019-06-20T15:30:57.319Z,19.63
2019-06-20T15:33:29.261Z,19.72
2019-06-20T15:36:01.036Z,19.69
2019-06-20T15:38:32.828Z,19.84
2019-06-20T15:41:04.766Z,20.00
2019-06-20T15:43:37.090Z,20.06
2019-06-20T15:46:08.864Z,20.21
2019-06-20T15:48:40.665Z,20.30
2019-06-20T15:51:12.438Z,20.40
2019-06-20T15:53:44.217Z,20.49
2019-06-20T15:56:15.997Z,20.55
2019-06-20T15:58:47.771Z,20.37
2019-06-20T16:01:19.549Z,20.25
2019-06-20T16:03:52.614Z,20.24
2019-06-20T16:06:24.543Z,20.42
2019-06-20T16:08:56.445Z,20.37
2019-06-20T16:11:28.175Z,20.12
2019-06-20T16:13:59.982Z,20.03
2019-06-20T16:16:31.717Z,20.01
2019-06-20T16:19:03.592Z,20.12
2019-06-20T16:21:35.520Z,20.07
2019-06-20T16:24:07.461Z,20.01
2019-06-20T16:26:39.212Z,19.89
2019-06-20T16:29:11.647Z,19.92
2019-06-20T16:31:43.487Z,19.98
2019-06-20T16:34:15.443Z,20.08
2019-06-20T16:36:47.198Z,20.04
2019-06-20T16:39:18.981Z,20.08
2019-06-20T16:41:50.732Z,20.09
2019-06-20T16:44:22.528Z,20.12
2019-06-20T16:46:54.288Z,20.12
2019-06-20T16:49:26.069Z,20.10
2019-06-20T16:51:57.845Z,20.12
2019-06-20T16:54:29.625Z,20.34
2019-06-20T16:57:01.431Z,20.58
2019-06-20T16:59:33.182Z,20.84
2019-06-20T17:02:05.260Z,20.99
2019-06-20T17:04:37.026Z,21.22
2019-06-20T17:07:09.865Z,21.23
2019-06-20T17:09:42.136Z,21.24
2019-06-20T17:12:14.865Z,21.25
2019-06-20T17:14:46.639Z,21.25
2019-06-20T17:17:19.470Z,21.20
2019-06-20T17:19:51.371Z,21.16
2019-06-20T17:22:23.135Z,21.19
2019-06-20T17:24:54.914Z,21.09
2019-06-20T17:27:26.675Z,21.07
2019-06-20T17:29:58.447Z,21.07
2019-06-20T17:32:30.200Z,21.22
2019-06-20T17:35:02.548Z,21.08
2019-06-20T17:37:34.301Z,21.10
2019-06-20T17:40:07.994Z,20.96
2019-06-20T17:42:39.741Z,20.79
2019-06-20T17:45:13.197Z,20.54
2019-06-20T17:47:44.971Z,20.50
2019-06-20T17:50:17.161Z,20.49
2019-06-20T17:52:48.920Z,20.35
2019-06-20T17:55:20.827Z,20.28
2019-06-20T17:57:52.692Z,20.25
2019-06-20T18:00:25.571Z,20.20
2019-06-20T18:02:57.334Z,20.26
2019-06-20T18:05:30.313Z,20.16
2019-06-20T18:08:14.780Z,20.14
2019-06-20T18:10:35.551Z,20.10
2019-06-20T18:13:07.321Z,20.07
2019-06-20T18:15:39.276Z,19.97
2019-06-20T18:18:11.039Z,19.97
2019-06-20T18:20:42.879Z,19.92
2019-06-20T18:23:14.726Z,20.13
2019-06-20T18:25:46.615Z,20.17
2019-06-20T18:28:18.372Z,20.29
2019-06-20T18:30:50.362Z,20.23
2019-06-20T18:33:22.122Z,20.17
2019-06-20T18:35:55.097Z,20.09
2019-06-20T18:38:26.857Z,20.14
2019-06-20T18:40:58.693Z,20.05
2019-06-20T18:43:30.462Z,20.14
2019-06-20T18:46:02.394Z,20.15
2019-06-20T18:48:34.169Z,20.11
2019-06-20T18:51:06.692Z,19.95
2019-06-20T18:53:38.449Z,19.96
2019-06-20T18:56:11.045Z,19.99
2019-06-20T18:58:42.885Z,19.95
2019-06-20T19:01:14.659Z,19.89
2019-06-20T19:03:46.724Z,19.87
2019-06-20T19:06:18.595Z,19.80
2019-06-20T19:08:50.613Z,19.72
2019-06-20T19:11:22.472Z,19.61
2019-06-20T19:13:54.228Z,19.53
2019-06-20T19:16:26.006Z,19.46
2019-06-20T19:18:57.784Z,19.38
2019-06-20T19:21:29.572Z,19.29
2019-06-20T19:24:01.324Z,19.22
2019-06-20T19:26:33.482Z,19.21
2019-06-20T19:29:05.282Z,19.19
2019-06-20T19:31:37.311Z,19.16
2019-06-20T19:34:09.283Z,18.99
2019-06-20T19:36:41.060Z,18.92
2019-06-20T19:39:12.897Z,18.84
2019-06-20T19:41:44.667Z,18.79
2019-06-20T19:44:16.544Z,18.73
2019-06-20T19:46:48.328Z,18.68
2019-06-20T19:49:20.091Z,18.57
2019-06-20T19:51:52.084Z,18.48
2019-06-20T19:54:23.847Z,18.37
2019-06-20T19:56:55.702Z,18.27
2019-06-20T19:59:27.466Z,18.23
2019-06-20T20:01:59.324Z,18.20
2019-06-20T20:04:31.156Z,18.14
2019-06-20T20:07:02.939Z,18.08
2019-06-20T20:09:35.907Z,18.00
2019-06-20T20:12:07.737Z,17.91
2019-06-20T20:14:39.519Z,17.88
2019-06-20T20:17:11.305Z,17.83
2019-06-20T20:19:43.070Z,17.77
2019-06-20T20:22:14.871Z,17.77
2019-06-20T20:24:46.642Z,17.73
2019-06-20T20:27:18.434Z,17.70
2019-06-20T20:29:50.261Z,17.64
2019-06-20T20:32:22.049Z,17.49
2019-06-20T20:34:53.824Z,17.40
2019-06-20T20:37:25.617Z,17.47
2019-06-20T20:39:57.412Z,17.48
2019-06-20T20:42:29.261Z,17.42
2019-06-20T20:45:01.031Z,17.32
2019-06-20T20:47:32.840Z,17.30
2019-06-20T20:50:10.261Z,17.18
2019-06-20T20:52:42.980Z,17.08
2019-06-20T20:55:16.290Z,17.00
2019-06-20T20:57:48.026Z,16.95
2019-06-20T21:00:45.228Z,16.91
2019-06-20T21:03:17.082Z,16.86
2019-06-20T21:05:51.703Z,16.77
2019-06-20T21:08:22.390Z,16.71
2019-06-20T21:10:54.164Z,16.57
2019-06-20T21:13:26.018Z,16.62
2019-06-20T21:15:58.113Z,16.65
2019-06-20T21:18:29.893Z,16.62
2019-06-20T21:21:02.648Z,16.55
2019-06-20T21:23:34.418Z,16.51
2019-06-20T21:26:06.256Z,16.51
2019-06-20T21:28:38.024Z,16.42
2019-06-20T21:31:11.049Z,16.35
2019-06-20T21:33:42.811Z,16.26
2019-06-20T21:36:14.589Z,16.31
2019-06-20T21:38:47.479Z,16.24
2019-06-20T21:41:19.214Z,16.24
2019-06-20T21:43:51.002Z,16.23
2019-06-20T21:46:22.774Z,16.25
2019-06-20T21:48:54.566Z,16.17
2019-06-20T21:51:26.326Z,16.12
2019-06-20T21:53:58.108Z,16.13
2019-06-20T21:56:29.873Z,16.17
2019-06-20T21:59:01.926Z,16.18
2019-06-20T22:01:33.966Z,16.19
2019-06-20T22:04:05.893Z,16.21
2019-06-20T22:06:37.650Z,16.13
2019-06-20T22:09:09.673Z,16.18
2019-06-20T22:11:43.046Z,16.23
2019-06-20T22:14:14.827Z,16.19
2019-06-20T22:16:46.593Z,16.17
2019-06-20T22:19:18.369Z,16.20
2019-06-20T22:21:50.142Z,16.18
2019-06-20T22:24:21.918Z,16.16
2019-06-20T22:26:53.687Z,16.14
2019-06-20T22:29:25.496Z,16.21
2019-06-20T22:31:57.243Z,16.23
2019-06-20T22:34:29.050Z,16.25
2019-06-20T22:37:00.816Z,16.23
2019-06-20T22:39:32.658Z,16.20
2019-06-20T22:42:04.499Z,16.22
2019-06-20T22:44:36.281Z,16.28
2019-06-20T22:47:08.052Z,16.27
2019-06-20T22:49:39.818Z,16.25
2019-06-20T22:52:11.611Z,16.25
2019-06-20T22:54:43.375Z,16.22
2019-06-20T22:57:15.144Z,16.17
2019-06-20T22:59:46.922Z,16.17
2019-06-20T23:02:18.690Z,16.12
2019-06-20T23:04:50.473Z,16.09
2019-06-20T23:07:22.252Z,16.09
2019-06-20T23:10:09.338Z,16.06
2019-06-20T23:12:27.658Z,16.05
2019-06-20T23:14:59.444Z,16.04
2019-06-20T23:17:31.210Z,16.04
2019-06-20T23:20:07.256Z,15.96
2019-06-20T23:22:40.765Z,15.97
2019-06-20T23:25:14.497Z,16.01
2019-06-20T23:27:46.291Z,16.02
2019-06-20T23:30:18.761Z,15.91
2019-06-20T23:32:50.530Z,15.98
2019-06-20T23:35:22.309Z,16.00
2019-06-20T23:37:54.074Z,15.96
2019-06-20T23:40:25.854Z,15.87
2019-06-20T23:42:57.619Z,15.87
2019-06-20T23:45:29.415Z,15.82
2019-06-20T23:48:01.194Z,15.75
2019-06-20T23:50:34.243Z,15.74
2019-06-20T23:53:11.728Z,15.81
2019-06-20T23:55:43.502Z,15.77
2019-06-20T23:58:15.336Z,15.82
